sensor_id;sensor_type;location;lat;lon;timestamp;pressure;altitude;pressure_sealevel;temperature;humidity
62031;BME280;62035;52.094;5.112;2023-03-04T00:00:31;102797.69;;;7.26;100.00
62031;BME280;62035;52.094;5.112;2023-03-04T00:02:58;102786.03;;;7.13;100.00
62031;BME280;62035;52.094;5.112;2023-03-04T00:05:27;102793.69;;;7.34;100.00
62031;BME280;62035;52.094;5.112;2023-03-04T00:07:56;102795.09;;;7.42;100.00
62031;BME280;62035;52.094;5.112;2023-03-04T00:10:23;102796.59;;;7.30;100.00
62031;BME280;62035;52.094;5.112;2023-03-04T00:12:51;102799.38;;;7.27;100.00
62031;BME280;62035;52.094;5.112;2023-03-04T00:15:18;102798.13;;;7.34;100.00
62031;BME280;62035;52.094;5.112;2023-03-04T00:17:46;102789.88;;;7.23;100.00
62031;BME280;62035;52.094;5.112;2023-03-04T00:20:14;102787.91;;;7.44;100.00
62031;BME280;62035;52.094;5.112;2023-03-04T00:22:43;102793.28;;;7.42;100.00
62031;BME280;62035;52.094;5.112;2023-03-04T00:25:10;102791.75;;;7.38;100.00
62031;BME280;62035;52.094;5.112;2023-03-04T00:27:38;102799.22;;;7.30;100.00
62031;BME280;62035;52.094;5.112;2023-03-04T00:30:07;102792.69;;;7.37;100.00
62031;BME280;62035;52.094;5.112;2023-03-04T00:32:35;102795.88;;;7.26;100.00
62031;BME280;62035;52.094;5.112;2023-03-04T00:35:04;102796.41;;;7.33;100.00
62031;BME280;62035;52.094;5.112;2023-03-04T00:37:32;102795.16;;;7.40;100.00
62031;BME280;62035;52.094;5.112;2023-03-04T00:40:01;102799.81;;;7.19;100.00
62031;BME280;62035;52.094;5.112;2023-03-04T00:42:28;102793.13;;;7.12;100.00
62031;BME280;62035;52.094;5.112;2023-03-04T00:44:56;102797.03;;;7.38;100.00
62031;BME280;62035;52.094;5.112;2023-03-04T00:47:24;102801.72;;;7.33;100.00
62031;BME280;62035;52.094;5.112;2023-03-04T00:49:51;102798.59;;;7.42;100.00
62031;BME280;62035;52.094;5.112;2023-03-04T00:52:19;102788.38;;;7.52;100.00
62031;BME280;62035;52.094;5.112;2023-03-04T00:54:46;102790.25;;;7.50;100.00
62031;BME280;62035;52.094;5.112;2023-03-04T00:57:15;102793.06;;;7.47;100.00
62031;BME280;62035;52.094;5.112;2023-03-04T00:59:43;102792.56;;;7.56;100.00
62031;BME280;62035;52.094;5.112;2023-03-04T01:02:11;102802.88;;;7.45;100.00
62031;BME280;62035;52.094;5.112;2023-03-04T01:04:39;102807.41;;;7.43;100.00
62031;BME280;62035;52.094;5.112;2023-03-04T01:07:08;102799.47;;;7.25;100.00
62031;BME280;62035;52.094;5.112;2023-03-04T01:09:35;102808.19;;;7.27;100.00
62031;BME280;62035;52.094;5.112;2023-03-04T01:12:03;102797.16;;;7.19;100.00
62031;BME280;62035;52.094;5.112;2023-03-04T01:14:32;102801.38;;;7.06;100.00
62031;BME280;62035;52.094;5.112;2023-03-04T01:17:00;102797.44;;;7.30;100.00
62031;BME280;62035;52.094;5.112;2023-03-04T01:19:28;102797.84;;;7.23;100.00
62031;BME280;62035;52.094;5.112;2023-03-04T01:21:55;102801.13;;;7.11;100.00
62031;BME280;62035;52.094;5.112;2023-03-04T01:24:23;102795.75;;;7.12;100.00
62031;BME280;62035;52.094;5.112;2023-03-04T01:26:50;102790.50;;;7.28;100.00
62031;BME280;62035;52.094;5.112;2023-03-04T01:29:18;102777.03;;;7.32;100.00
62031;BME280;62035;52.094;5.112;2023-03-04T01:31:47;102780.19;;;7.06;100.00
62031;BME280;62035;52.094;5.112;2023-03-04T01:34:14;102777.69;;;7.03;100.00
62031;BME280;62035;52.094;5.112;2023-03-04T01:36:43;102774.69;;;7.26;100.00
62031;BME280;62035;52.094;5.112;2023-03-04T01:39:10;102771.13;;;7.27;100.00
62031;BME280;62035;52.094;5.112;2023-03-04T01:41:38;102773.44;;;7.33;100.00
62031;BME280;62035;52.094;5.112;2023-03-04T01:44:07;102758.31;;;7.35;100.00
62031;BME280;62035;52.094;5.112;2023-03-04T01:46:37;102763.13;;;7.45;100.00
62031;BME280;62035;52.094;5.112;2023-03-04T01:49:11;102760.31;;;7.48;100.00
62031;BME280;62035;52.094;5.112;2023-03-04T01:51:43;102755.69;;;7.35;100.00
62031;BME280;62035;52.094;5.112;2023-03-04T01:54:14;102764.63;;;7.33;100.00
62031;BME280;62035;52.094;5.112;2023-03-04T01:56:44;102761.53;;;7.25;100.00
62031;BME280;62035;52.094;5.112;2023-03-04T01:59:15;102756.16;;;7.26;100.00
62031;BME280;62035;52.094;5.112;2023-03-04T02:01:46;102743.75;;;7.11;100.00
62031;BME280;62035;52.094;5.112;2023-03-04T02:04:18;102741.88;;;7.13;100.00
62031;BME280;62035;52.094;5.112;2023-03-04T02:06:49;102732.84;;;7.17;100.00
62031;BME280;62035;52.094;5.112;2023-03-04T02:09:17;102739.25;;;6.96;100.00
62031;BME280;62035;52.094;5.112;2023-03-04T02:11:46;102746.78;;;7.03;100.00
62031;BME280;62035;52.094;5.112;2023-03-04T02:14:15;102733.56;;;7.03;100.00
62031;BME280;62035;52.094;5.112;2023-03-04T02:16:44;102730.78;;;7.22;100.00
62031;BME280;62035;52.094;5.112;2023-03-04T02:19:15;102706.47;;;6.98;100.00
62031;BME280;62035;52.094;5.112;2023-03-04T02:21:51;102715.81;;;7.06;100.00
62031;BME280;62035;52.094;5.112;2023-03-04T02:24:21;102722.97;;;7.03;100.00
62031;BME280;62035;52.094;5.112;2023-03-04T02:26:56;102712.91;;;7.10;100.00
62031;BME280;62035;52.094;5.112;2023-03-04T02:29:24;102709.09;;;7.16;100.00
62031;BME280;62035;52.094;5.112;2023-03-04T02:31:52;102716.59;;;7.23;100.00
62031;BME280;62035;52.094;5.112;2023-03-04T02:34:23;102687.00;;;6.99;100.00
62031;BME280;62035;52.094;5.112;2023-03-04T02:36:54;102713.25;;;7.20;100.00
62031;BME280;62035;52.094;5.112;2023-03-04T02:39:27;102706.69;;;7.11;100.00
62031;BME280;62035;52.094;5.112;2023-03-04T02:41:59;102713.09;;;7.23;100.00
62031;BME280;62035;52.094;5.112;2023-03-04T02:44:30;102709.44;;;7.25;100.00
62031;BME280;62035;52.094;5.112;2023-03-04T02:47:00;102686.31;;;6.96;100.00
62031;BME280;62035;52.094;5.112;2023-03-04T02:49:31;102713.59;;;7.14;100.00
62031;BME280;62035;52.094;5.112;2023-03-04T02:52:02;102688.38;;;7.07;100.00
62031;BME280;62035;52.094;5.112;2023-03-04T02:54:31;102681.31;;;6.90;100.00
62031;BME280;62035;52.094;5.112;2023-03-04T02:57:02;102697.13;;;6.91;100.00
62031;BME280;62035;52.094;5.112;2023-03-04T02:59:30;102696.81;;;6.97;100.00
62031;BME280;62035;52.094;5.112;2023-03-04T03:01:58;102692.84;;;7.06;100.00
62031;BME280;62035;52.094;5.112;2023-03-04T03:04:26;102697.66;;;6.98;100.00
62031;BME280;62035;52.094;5.112;2023-03-04T03:06:54;102690.97;;;7.08;100.00
62031;BME280;62035;52.094;5.112;2023-03-04T03:09:22;102695.69;;;7.19;100.00
62031;BME280;62035;52.094;5.112;2023-03-04T03:11:50;102692.34;;;7.15;100.00
62031;BME280;62035;52.094;5.112;2023-03-04T03:14:19;102691.19;;;7.03;100.00
62031;BME280;62035;52.094;5.112;2023-03-04T03:16:47;102690.97;;;7.24;100.00
62031;BME280;62035;52.094;5.112;2023-03-04T03:19:14;102679.19;;;7.29;100.00
62031;BME280;62035;52.094;5.112;2023-03-04T03:21:42;102678.41;;;7.12;100.00
62031;BME280;62035;52.094;5.112;2023-03-04T03:24:09;102682.19;;;7.23;100.00
62031;BME280;62035;52.094;5.112;2023-03-04T03:26:37;102679.53;;;7.23;100.00
62031;BME280;62035;52.094;5.112;2023-03-04T03:29:05;102686.22;;;7.30;100.00
62031;BME280;62035;52.094;5.112;2023-03-04T03:31:34;102681.00;;;7.29;100.00
62031;BME280;62035;52.094;5.112;2023-03-04T03:34:02;102670.84;;;7.37;100.00
62031;BME280;62035;52.094;5.112;2023-03-04T03:36:30;102676.47;;;7.31;100.00
62031;BME280;62035;52.094;5.112;2023-03-04T03:38:57;102670.00;;;7.36;100.00
62031;BME280;62035;52.094;5.112;2023-03-04T03:41:25;102673.97;;;7.28;100.00
62031;BME280;62035;52.094;5.112;2023-03-04T03:43:52;102672.25;;;7.11;100.00
62031;BME280;62035;52.094;5.112;2023-03-04T03:46:20;102678.94;;;7.18;100.00
62031;BME280;62035;52.094;5.112;2023-03-04T03:48:49;102670.16;;;7.18;100.00
62031;BME280;62035;52.094;5.112;2023-03-04T03:51:16;102678.41;;;7.12;100.00
62031;BME280;62035;52.094;5.112;2023-03-04T03:53:44;102680.97;;;7.13;100.00
62031;BME280;62035;52.094;5.112;2023-03-04T03:56:11;102683.34;;;7.02;100.00
62031;BME280;62035;52.094;5.112;2023-03-04T03:58:39;102684.88;;;7.06;100.00
62031;BME280;62035;52.094;5.112;2023-03-04T04:01:06;102677.97;;;7.03;100.00
62031;BME280;62035;52.094;5.112;2023-03-04T04:03:34;102677.63;;;7.10;100.00
62031;BME280;62035;52.094;5.112;2023-03-04T04:06:04;102679.75;;;7.03;100.00
62031;BME280;62035;52.094;5.112;2023-03-04T04:08:32;102685.22;;;7.00;100.00
62031;BME280;62035;52.094;5.112;2023-03-04T04:10:59;102684.13;;;7.04;100.00
62031;BME280;62035;52.094;5.112;2023-03-04T04:13:27;102691.34;;;7.00;100.00
62031;BME280;62035;52.094;5.112;2023-03-04T04:15:54;102688.34;;;6.91;100.00
62031;BME280;62035;52.094;5.112;2023-03-04T04:18:22;102689.41;;;7.04;100.00
62031;BME280;62035;52.094;5.112;2023-03-04T04:20:51;102690.34;;;7.03;100.00
62031;BME280;62035;52.094;5.112;2023-03-04T04:23:20;102691.41;;;7.16;100.00
62031;BME280;62035;52.094;5.112;2023-03-04T04:25:48;102690.78;;;7.11;100.00
62031;BME280;62035;52.094;5.112;2023-03-04T04:28:15;102692.44;;;7.14;100.00
62031;BME280;62035;52.094;5.112;2023-03-04T04:30:43;102685.22;;;7.00;100.00
62031;BME280;62035;52.094;5.112;2023-03-04T04:33:11;102691.13;;;7.05;100.00
62031;BME280;62035;52.094;5.112;2023-03-04T04:35:38;102690.78;;;7.11;100.00
62031;BME280;62035;52.094;5.112;2023-03-04T04:38:06;102694.88;;;7.01;100.00
62031;BME280;62035;52.094;5.112;2023-03-04T04:40:36;102695.88;;;6.98;100.00
62031;BME280;62035;52.094;5.112;2023-03-04T04:43:04;102697.44;;;6.85;100.00
62031;BME280;62035;52.094;5.112;2023-03-04T04:45:33;102697.56;;;6.66;100.00
62031;BME280;62035;52.094;5.112;2023-03-04T04:48:00;102700.75;;;6.73;100.00
62031;BME280;62035;52.094;5.112;2023-03-04T04:50:28;102686.84;;;6.85;100.00
62031;BME280;62035;52.094;5.112;2023-03-04T04:52:56;102696.03;;;6.95;100.00
62031;BME280;62035;52.094;5.112;2023-03-04T04:55:23;102702.88;;;6.99;100.00
62031;BME280;62035;52.094;5.112;2023-03-04T04:57:52;102691.28;;;7.02;100.00
62031;BME280;62035;52.094;5.112;2023-03-04T05:00:20;102687.28;;;7.11;100.00
62031;BME280;62035;52.094;5.112;2023-03-04T05:02:48;102685.53;;;6.94;100.00
62031;BME280;62035;52.094;5.112;2023-03-04T05:05:16;102692.06;;;7.04;100.00
62031;BME280;62035;52.094;5.112;2023-03-04T05:07:43;102691.34;;;7.00;100.00
62031;BME280;62035;52.094;5.112;2023-03-04T05:10:11;102686.06;;;7.00;100.00
62031;BME280;62035;52.094;5.112;2023-03-04T05:12:38;102688.00;;;6.97;100.00
62031;BME280;62035;52.094;5.112;2023-03-04T05:15:08;102666.38;;;6.89;100.00
62031;BME280;62035;52.094;5.112;2023-03-04T05:17:36;102695.69;;;7.19;100.00
62031;BME280;62035;52.094;5.112;2023-03-04T05:20:04;102688.75;;;7.16;100.00
62031;BME280;62035;52.094;5.112;2023-03-04T05:22:33;102691.19;;;7.36;100.00
62031;BME280;62035;52.094;5.112;2023-03-04T05:25:01;102692.53;;;7.28;100.00
62031;BME280;62035;52.094;5.112;2023-03-04T05:27:28;102689.88;;;7.28;100.00
62031;BME280;62035;52.094;5.112;2023-03-04T05:29:56;102688.84;;;7.30;100.00
62031;BME280;62035;52.094;5.112;2023-03-04T05:32:27;102674.84;;;7.28;100.00
62031;BME280;62035;52.094;5.112;2023-03-04T05:34:54;102694.75;;;7.35;100.00
62031;BME280;62035;52.094;5.112;2023-03-04T05:37:22;102693.06;;;7.34;100.00
62031;BME280;62035;52.094;5.112;2023-03-04T05:39:50;102704.56;;;7.18;100.00
62031;BME280;62035;52.094;5.112;2023-03-04T05:42:17;102705.06;;;7.24;100.00
62031;BME280;62035;52.094;5.112;2023-03-04T05:44:45;102701.78;;;7.36;100.00
62031;BME280;62035;52.094;5.112;2023-03-04T05:47:12;102706.06;;;7.06;100.00
62031;BME280;62035;52.094;5.112;2023-03-04T05:49:41;102706.47;;;6.81;100.00
62031;BME280;62035;52.094;5.112;2023-03-04T05:52:09;102705.25;;;6.54;100.00
62031;BME280;62035;52.094;5.112;2023-03-04T05:54:37;102717.41;;;6.58;100.00
62031;BME280;62035;52.094;5.112;2023-03-04T05:57:04;102711.94;;;6.61;100.00
62031;BME280;62035;52.094;5.112;2023-03-04T05:59:32;102714.38;;;6.65;100.00
62031;BME280;62035;52.094;5.112;2023-03-04T06:02:00;102720.97;;;6.57;100.00
62031;BME280;62035;52.094;5.112;2023-03-04T06:04:27;102717.94;;;6.47;100.00
62031;BME280;62035;52.094;5.112;2023-03-04T06:06:56;102718.72;;;6.66;100.00
62031;BME280;62035;52.094;5.112;2023-03-04T06:09:24;102725.34;;;6.75;100.00
62031;BME280;62035;52.094;5.112;2023-03-04T06:11:51;102722.78;;;6.74;100.00
62031;BME280;62035;52.094;5.112;2023-03-04T06:14:19;102718.41;;;6.73;100.00
62031;BME280;62035;52.094;5.112;2023-03-04T06:16:47;102721.84;;;6.75;100.00
62031;BME280;62035;52.094;5.112;2023-03-04T06:19:14;102716.94;;;6.67;100.00
62031;BME280;62035;52.094;5.112;2023-03-04T06:21:42;102717.78;;;6.67;100.00
62031;BME280;62035;52.094;5.112;2023-03-04T06:24:11;102714.28;;;6.67;100.00
62031;BME280;62035;52.094;5.112;2023-03-04T06:26:38;102715.06;;;6.69;100.00
62031;BME280;62035;52.094;5.112;2023-03-04T06:29:06;102712.25;;;6.72;100.00
62031;BME280;62035;52.094;5.112;2023-03-04T06:31:34;102714.25;;;6.84;100.00
62031;BME280;62035;52.094;5.112;2023-03-04T06:34:01;102720.56;;;6.82;100.00
62031;BME280;62035;52.094;5.112;2023-03-04T06:36:29;102722.59;;;6.94;100.00
62031;BME280;62035;52.094;5.112;2023-03-04T06:38:56;102720.63;;;6.97;100.00
62031;BME280;62035;52.094;5.112;2023-03-04T06:41:25;102718.47;;;6.88;100.00
62031;BME280;62035;52.094;5.112;2023-03-04T06:43:53;102713.25;;;6.87;100.00
62031;BME280;62035;52.094;5.112;2023-03-04T06:46:21;102720.19;;;6.72;100.00
62031;BME280;62035;52.094;5.112;2023-03-04T06:48:49;102714.59;;;6.78;100.00
62031;BME280;62035;52.094;5.112;2023-03-04T06:51:17;102715.63;;;6.76;100.00
62031;BME280;62035;52.094;5.112;2023-03-04T06:53:46;102718.78;;;6.82;100.00
62031;BME280;62035;52.094;5.112;2023-03-04T06:56:13;102717.63;;;6.71;100.00
62031;BME280;62035;52.094;5.112;2023-03-04T06:58:43;102720.19;;;6.72;100.00
62031;BME280;62035;52.094;5.112;2023-03-04T07:01:13;102725.84;;;6.82;100.00
62031;BME280;62035;52.094;5.112;2023-03-04T07:03:42;102722.97;;;6.86;100.00
62031;BME280;62035;52.094;5.112;2023-03-04T07:06:11;102719.78;;;6.97;100.00
62031;BME280;62035;52.094;5.112;2023-03-04T07:08:41;102728.34;;;7.02;100.00
62031;BME280;62035;52.094;5.112;2023-03-04T07:11:09;102725.44;;;7.07;100.00
62031;BME280;62035;52.094;5.112;2023-03-04T07:13:37;102728.63;;;7.13;100.00
62031;BME280;62035;52.094;5.112;2023-03-04T07:16:08;102729.19;;;7.02;100.00
62031;BME280;62035;52.094;5.112;2023-03-04T07:18:38;102726.00;;;6.96;100.00
62031;BME280;62035;52.094;5.112;2023-03-04T07:21:06;102738.16;;;6.83;100.00
62031;BME280;62035;52.094;5.112;2023-03-04T07:23:34;102738.19;;;6.65;100.00
62031;BME280;62035;52.094;5.112;2023-03-04T07:26:03;102743.00;;;6.75;100.00
62031;BME280;62035;52.094;5.112;2023-03-04T07:28:31;102741.53;;;6.69;100.00
62031;BME280;62035;52.094;5.112;2023-03-04T07:31:09;102741.34;;;6.89;100.00
62031;BME280;62035;52.094;5.112;2023-03-04T07:33:39;102745.06;;;7.02;100.00
62031;BME280;62035;52.094;5.112;2023-03-04T07:36:07;102745.78;;;7.06;100.00
62031;BME280;62035;52.094;5.112;2023-03-04T07:38:34;102744.91;;;7.06;100.00
62031;BME280;62035;52.094;5.112;2023-03-04T07:41:02;102751.22;;;7.03;100.00
62031;BME280;62035;52.094;5.112;2023-03-04T07:43:30;102748.03;;;7.14;100.00
62031;BME280;62035;52.094;5.112;2023-03-04T07:45:59;102740.03;;;7.31;100.00
62031;BME280;62035;52.094;5.112;2023-03-04T07:48:29;102735.88;;;7.43;100.00
62031;BME280;62035;52.094;5.112;2023-03-04T07:51:04;102736.94;;;7.56;100.00
62031;BME280;62035;52.094;5.112;2023-03-04T07:53:35;102733.34;;;7.57;100.00
62031;BME280;62035;52.094;5.112;2023-03-04T07:56:06;102742.06;;;7.59;100.00
62031;BME280;62035;52.094;5.112;2023-03-04T07:58:37;102745.97;;;7.67;100.00
62031;BME280;62035;52.094;5.112;2023-03-04T08:01:08;102732.13;;;7.62;100.00
62031;BME280;62035;52.094;5.112;2023-03-04T08:03:38;102735.75;;;7.77;100.00
62031;BME280;62035;52.094;5.112;2023-03-04T08:06:07;102742.69;;;7.95;100.00
62031;BME280;62035;52.094;5.112;2023-03-04T08:08:36;102743.03;;;7.89;100.00
62031;BME280;62035;52.094;5.112;2023-03-04T08:11:05;102753.84;;;8.00;100.00
62031;BME280;62035;52.094;5.112;2023-03-04T08:13:34;102745.38;;;8.10;100.00
62031;BME280;62035;52.094;5.112;2023-03-04T08:16:03;102746.75;;;8.17;100.00
62031;BME280;62035;52.094;5.112;2023-03-04T08:18:31;102741.31;;;8.35;100.00
62031;BME280;62035;52.094;5.112;2023-03-04T08:21:01;102743.50;;;8.12;100.00
62031;BME280;62035;52.094;5.112;2023-03-04T08:23:28;102751.13;;;8.18;100.00
62031;BME280;62035;52.094;5.112;2023-03-04T08:25:56;102756.94;;;8.24;100.00
62031;BME280;62035;52.094;5.112;2023-03-04T08:28:24;102745.22;;;8.28;100.00
62031;BME280;62035;52.094;5.112;2023-03-04T08:30:52;102743.00;;;8.05;100.00
62031;BME280;62035;52.094;5.112;2023-03-04T08:33:21;102747.44;;;8.04;100.00
62031;BME280;62035;52.094;5.112;2023-03-04T08:35:49;102749.16;;;8.21;100.00
62031;BME280;62035;52.094;5.112;2023-03-04T08:38:18;102751.81;;;8.37;100.00
62031;BME280;62035;52.094;5.112;2023-03-04T08:40:51;102748.88;;;8.42;100.00
62031;BME280;62035;52.094;5.112;2023-03-04T08:43:19;102758.69;;;8.55;100.00
62031;BME280;62035;52.094;5.112;2023-03-04T08:45:47;102751.41;;;8.59;100.00
62031;BME280;62035;52.094;5.112;2023-03-04T08:48:15;102746.28;;;8.56;100.00
62031;BME280;62035;52.094;5.112;2023-03-04T08:50:44;102747.22;;;8.85;100.00
62031;BME280;62035;52.094;5.112;2023-03-04T08:53:13;102747.44;;;8.96;100.00
62031;BME280;62035;52.094;5.112;2023-03-04T08:55:43;102742.19;;;8.80;100.00
62031;BME280;62035;52.094;5.112;2023-03-04T08:58:11;102722.53;;;8.68;100.00
62031;BME280;62035;52.094;5.112;2023-03-04T09:00:42;102747.69;;;8.77;100.00
62031;BME280;62035;52.094;5.112;2023-03-04T09:03:14;102741.53;;;8.91;100.00
62031;BME280;62035;52.094;5.112;2023-03-04T09:05:44;102738.69;;;8.94;100.00
62031;BME280;62035;52.094;5.112;2023-03-04T09:08:12;102738.03;;;8.76;100.00
62031;BME280;62035;52.094;5.112;2023-03-04T09:10:42;102742.31;;;8.93;100.00
62031;BME280;62035;52.094;5.112;2023-03-04T09:13:10;102730.91;;;8.77;100.00
62031;BME280;62035;52.094;5.112;2023-03-04T09:15:43;102740.72;;;8.60;100.00
62031;BME280;62035;52.094;5.112;2023-03-04T09:18:11;102740.97;;;8.86;100.00
62031;BME280;62035;52.094;5.112;2023-03-04T09:20:40;102725.66;;;9.19;100.00
62031;BME280;62035;52.094;5.112;2023-03-04T09:23:08;102729.59;;;8.98;100.00
62031;BME280;62035;52.094;5.112;2023-03-04T09:25:35;102727.50;;;8.89;100.00
62031;BME280;62035;52.094;5.112;2023-03-04T09:28:06;102742.13;;;8.96;100.00
62031;BME280;62035;52.094;5.112;2023-03-04T09:30:34;102732.72;;;8.90;100.00
62031;BME280;62035;52.094;5.112;2023-03-04T09:33:02;102725.50;;;8.48;100.00
62031;BME280;62035;52.094;5.112;2023-03-04T09:35:30;102738.03;;;8.90;100.00
62031;BME280;62035;52.094;5.112;2023-03-04T09:37:58;102742.44;;;9.06;100.00
62031;BME280;62035;52.094;5.112;2023-03-04T09:40:29;102743.94;;;9.10;100.00
62031;BME280;62035;52.094;5.112;2023-03-04T09:43:01;102732.66;;;9.06;100.00
62031;BME280;62035;52.094;5.112;2023-03-04T09:45:36;102739.41;;;9.12;100.00
62031;BME280;62035;52.094;5.112;2023-03-04T09:48:09;102728.88;;;9.10;100.00
62031;BME280;62035;52.094;5.112;2023-03-04T09:50:54;102734.75;;;9.15;100.00
62031;BME280;62035;52.094;5.112;2023-03-04T09:53:36;102741.09;;;8.98;100.00
62031;BME280;62035;52.094;5.112;2023-03-04T09:56:13;102741.97;;;8.39;100.00
62031;BME280;62035;52.094;5.112;2023-03-04T09:58:49;102749.44;;;8.32;100.00
62031;BME280;62035;52.094;5.112;2023-03-04T10:01:29;102751.34;;;8.45;100.00
62031;BME280;62035;52.094;5.112;2023-03-04T10:04:04;102753.34;;;8.41;100.00
62031;BME280;62035;52.094;5.112;2023-03-04T10:06:40;102738.28;;;8.72;100.00
62031;BME280;62035;52.094;5.112;2023-03-04T10:09:12;102750.09;;;8.96;100.00
62031;BME280;62035;52.094;5.112;2023-03-04T10:11:45;102746.34;;;9.14;100.00
62031;BME280;62035;52.094;5.112;2023-03-04T10:14:37;102734.00;;;9.42;100.00
62031;BME280;62035;52.094;5.112;2023-03-04T10:17:16;102724.69;;;9.49;100.00
62031;BME280;62035;52.094;5.112;2023-03-04T10:19:53;102720.66;;;9.84;100.00
62031;BME280;62035;52.094;5.112;2023-03-04T10:22:31;102692.84;;;10.02;100.00
62031;BME280;62035;52.094;5.112;2023-03-04T10:25:14;102702.34;;;10.33;100.00
62031;BME280;62035;52.094;5.112;2023-03-04T10:27:51;102694.38;;;10.33;100.00
62031;BME280;62035;52.094;5.112;2023-03-04T10:30:29;102690.97;;;10.17;100.00
62031;BME280;62035;52.094;5.112;2023-03-04T10:33:11;102693.94;;;10.27;100.00
62031;BME280;62035;52.094;5.112;2023-03-04T10:35:42;102698.50;;;10.25;100.00
62031;BME280;62035;52.094;5.112;2023-03-04T10:38:14;102694.28;;;10.35;100.00
62031;BME280;62035;52.094;5.112;2023-03-04T10:40:42;102695.19;;;10.21;100.00
62031;BME280;62035;52.094;5.112;2023-03-04T10:43:15;102687.78;;;10.39;100.00
62031;BME280;62035;52.094;5.112;2023-03-04T10:45:44;102696.94;;;10.35;100.00
62031;BME280;62035;52.094;5.112;2023-03-04T10:48:19;102697.75;;;10.09;100.00
62031;BME280;62035;52.094;5.112;2023-03-04T10:50:48;102714.94;;;9.90;100.00
62031;BME280;62035;52.094;5.112;2023-03-04T10:53:29;102730.56;;;9.54;100.00
62031;BME280;62035;52.094;5.112;2023-03-04T10:55:59;102723.63;;;9.23;100.00
62031;BME280;62035;52.094;5.112;2023-03-04T10:58:28;102735.78;;;9.27;100.00
62031;BME280;62035;52.094;5.112;2023-03-04T11:01:01;102734.06;;;9.26;100.00
62031;BME280;62035;52.094;5.112;2023-03-04T11:03:34;102726.03;;;9.42;100.00
62031;BME280;62035;52.094;5.112;2023-03-04T11:06:06;102715.88;;;9.48;100.00
62031;BME280;62035;52.094;5.112;2023-03-04T11:08:40;102729.22;;;9.61;100.00
62031;BME280;62035;52.094;5.112;2023-03-04T11:11:28;102714.75;;;9.79;100.00
62031;BME280;62035;52.094;5.112;2023-03-04T11:14:02;102705.44;;;9.86;100.00
62031;BME280;62035;52.094;5.112;2023-03-04T11:16:37;102695.28;;;10.20;100.00
62031;BME280;62035;52.094;5.112;2023-03-04T11:19:12;102688.50;;;10.41;100.00
62031;BME280;62035;52.094;5.112;2023-03-04T11:21:43;102682.97;;;10.44;100.00
62031;BME280;62035;52.094;5.112;2023-03-04T11:24:13;102675.94;;;10.30;100.00
62031;BME280;62035;52.094;5.112;2023-03-04T11:26:50;102675.50;;;10.24;100.00
62031;BME280;62035;52.094;5.112;2023-03-04T11:29:24;102677.31;;;9.96;100.00
62031;BME280;62035;52.094;5.112;2023-03-04T11:32:00;102687.59;;;9.88;100.00
62031;BME280;62035;52.094;5.112;2023-03-04T11:34:41;102701.16;;;9.43;100.00
62031;BME280;62035;52.094;5.112;2023-03-04T11:37:20;102712.34;;;8.91;100.00
62031;BME280;62035;52.094;5.112;2023-03-04T11:39:55;102724.63;;;8.63;100.00
62031;BME280;62035;52.094;5.112;2023-03-04T11:42:33;102722.44;;;8.40;100.00
62031;BME280;62035;52.094;5.112;2023-03-04T11:45:10;102726.75;;;8.11;100.00
62031;BME280;62035;52.094;5.112;2023-03-04T11:47:47;102728.97;;;8.34;100.00
62031;BME280;62035;52.094;5.112;2023-03-04T11:50:31;102718.84;;;8.41;100.00
62031;BME280;62035;52.094;5.112;2023-03-04T11:53:43;102724.53;;;8.65;100.00
62031;BME280;62035;52.094;5.112;2023-03-04T11:56:26;102717.81;;;8.88;100.00
62031;BME280;62035;52.094;5.112;2023-03-04T11:59:07;102715.78;;;9.07;100.00
62031;BME280;62035;52.094;5.112;2023-03-04T12:01:55;102699.25;;;9.30;100.00
62031;BME280;62035;52.094;5.112;2023-03-04T12:04:40;102684.16;;;9.59;100.00
62031;BME280;62035;52.094;5.112;2023-03-04T12:07:42;102676.75;;;9.50;100.00
62031;BME280;62035;52.094;5.112;2023-03-04T12:10:32;102681.50;;;9.86;100.00
62031;BME280;62035;52.094;5.112;2023-03-04T12:16:55;102678.75;;;9.32;100.00
62031;BME280;62035;52.094;5.112;2023-03-04T12:19:40;102682.38;;;9.31;100.00
62031;BME280;62035;52.094;5.112;2023-03-04T12:22:29;102689.88;;;8.96;100.00
62031;BME280;62035;52.094;5.112;2023-03-04T12:25:32;102694.13;;;8.99;100.00
62031;BME280;62035;52.094;5.112;2023-03-04T12:28:28;102704.81;;;8.69;100.00
62031;BME280;62035;52.094;5.112;2023-03-04T12:31:19;102700.47;;;8.68;100.00
62031;BME280;62035;52.094;5.112;2023-03-04T12:34:29;102692.78;;;8.33;100.00
62031;BME280;62035;52.094;5.112;2023-03-04T12:37:14;102689.28;;;8.33;100.00
62031;BME280;62035;52.094;5.112;2023-03-04T12:40:20;102694.06;;;8.56;100.00
62031;BME280;62035;52.094;5.112;2023-03-04T12:43:04;102682.56;;;8.72;100.00
62031;BME280;62035;52.094;5.112;2023-03-04T12:45:44;102679.81;;;8.87;100.00
62031;BME280;62035;52.094;5.112;2023-03-04T12:48:24;102669.38;;;9.27;100.00
62031;BME280;62035;52.094;5.112;2023-03-04T12:51:05;102654.50;;;9.10;100.00
62031;BME280;62035;52.094;5.112;2023-03-04T12:53:50;102651.44;;;9.30;100.00
62031;BME280;62035;52.094;5.112;2023-03-04T12:56:36;102642.97;;;9.38;100.00
62031;BME280;62035;52.094;5.112;2023-03-04T12:59:13;102641.91;;;9.55;100.00
62031;BME280;62035;52.094;5.112;2023-03-04T13:01:47;102627.81;;;9.40;100.00
62031;BME280;62035;52.094;5.112;2023-03-04T13:04:26;102631.22;;;9.42;100.00
62031;BME280;62035;52.094;5.112;2023-03-04T13:07:08;102617.56;;;9.34;100.00
62031;BME280;62035;52.094;5.112;2023-03-04T13:09:49;102616.81;;;9.32;100.00
62031;BME280;62035;52.094;5.112;2023-03-04T13:12:23;102609.53;;;10.02;100.00
62031;BME280;62035;52.094;5.112;2023-03-04T13:15:17;102601.03;;;10.10;100.00